Ana Sayfa
METAR-TAF:

METAR-TAF

Havaalanları :

Bangkok, Tayland

Enlem: 13-54-45N, Boylam: 100-36-24E, yükseklik: 4 m

Güncel hava durumu gözlemi

Rapor saat 13:30 UTC de 32 dakika önce yapıldı.
Sakin rüzgar
Sıcaklık 27°C
Nem 62%
Basınç 1015 hPa
Görüş mesafesi 10 km veya daha fazla
4000 ft yükseklikte az bulutlu

METAR: VTBD 131330Z 00000KT 9999 FEW040 27/19 Q1015 NOSIG

Saat: 21:02 (14:02 UTC)

Tahmin

Rapor saat 11:00 UTC de 3 saat ve 2 dakika önce yapıldı.
Ayın 13'si saat 12 UTC'den ayın 14'si saat 18 UTC'ye kadar geçerli Tahmin
Rüzgar kuzeydoğudan 5 kt
Görüş mesafesi 10 km veya daha fazla
4000 ft yükseklikte az bulutlu
Dönüşüyor
ayın 13'si saat 18 UTC'den ayın 13'si saat 20 UTC'ye kadar
Rüzgar kuzeydan 5 kt
Görüş mesafesi: 8000 m
Dönüşüyor
ayın 14'si saat 02 UTC'den ayın 14'si saat 04 UTC'ye kadar
Rüzgar doğu/kuzeydoğudan 8 kt

TAF: VTBD 131100Z 1312/1418 05005KT 9999 FEW040 BECMG 1318/1320 35005KT 8000 NSC BECMG 1402/1404 06008KT

4.000'den fazla havaalanı için hava durumu gözlemleri ve tahminleri (METAR ve TAF raporları).

Kullanılabilir istasyonlar harita üzerinde sarı ve kırmızı noktalarla gösterilir.

İstasyonun adını görmek için fareyi noktanın üzerinde gezdirin.

Sonrasında hava gözlem ve tahminlerini görmek için tıklayın.

Haritayı değiştirmek için: yaklaştırmak için siyah artı işaretli yeşil düğmeye ve uzaklaştırmak için de eksi işaretli düğmeye hızla tıklayın; bitişik haritalar için yeşil okları kullanın.


METAR-TAF: